Pagrindinis puslapis
METAR-TAF:

METAR-TAF

Oro uostai :

Air Force Station

Cape Canaveral, Florida, Jungtinės Amerikos Valstijos

platuma: 28-28N, ilguma: 080-33W, Aukštis: 3 m

Dabartinis oras

Ataskaita buvo paskelbta 16 minutes, ne 17:16 UTC
Vėjas 8 kt iš Šiaurės/Šiaurės Rytų
Temperatūra 27°C
Drėgmė 70%
Slėgis 1013 hPa
Matomumas: 16.1 km
Su prošvaistėmis ne aukštis 2600 ft

METAR: KXMR 171716Z AUTO 03008KT 10SM BKN026 27/21 A2991 RMK AO2 CIG 026V037 BKN V SCT SLP132 $

Laikas: 13:32 (17:32 UTC)


TAF: trūkstamas

Orai ataskaitas ir orų prognozės (METAR, TAF).

turimą stotys yra geltonos ir raudonos taškus žemėlapyje.

Perkelti pele per norėdami pamatyti stoties vardą.

Tada spustelėkite, norėdami matyti oro stebėjimo ir prognozės.

Norėdami pakeisti žemėlapį: spustelėkite ant žalios mygtukų su juodo kryžiaus žemyn,; žalią mygtuką su brūkšneliu, jei norite nutolinti; arba žalių rodyklių gretimoms žemėlapius.


METAR-TAF: